• Join FlightAware (Why Join?)
  • Login
  • US Flag 
02:05AM EDT


 

Airport Tracker/Info


-or-


 

Live Flight TrackerFlight Track Log ✈ SVA1488 ✈ 24-Nov-2013 ✈ OEPA / AQI - OERK / RUH

Flight Track Log - Related Links

Times and Time Zones

All times are in EST time to prevent confusion due to time zone crossing. See the SVA1488 flight status page for this flight to view local times or setup timezone preferences in your user account.

Time Position Orientation Groundspeed Altitude Reporting Facility
EST Latitude Longitude Course Direction KTS MPH feet Rate Location/Type
07:47AM 27.0704 46.3439 171° South  Level Estimated
07:48AM 26.9861 46.3584 171° South  Level Estimated
07:49AM 26.9018 46.3727 171° South  Level Estimated
07:50AM 26.8175 46.3871 171° South  Level Estimated
07:51AM 26.7331 46.4015 171° South  Level Estimated
07:52AM 26.6488 46.4158 171° South  Level Estimated
07:53AM 26.5645 46.4301 171° South  Level Estimated
07:54AM 26.4801 46.4444 171° South  Level Estimated
07:55AM 26.3958 46.4587 171° South  Level Estimated
07:56AM 26.3114 46.4729 171° South  Level Estimated
07:57AM 26.2271 46.4871 171° South  Level Estimated
07:58AM 26.1428 46.5013 171° South  Level Estimated
07:59AM 26.0584 46.5155 171° South  Level Estimated
08:00AM 25.9741 46.5297 171° South  Level Estimated
08:01AM 25.8686 46.5474 171° South  Level Estimated
08:02AM 25.7632 46.5650 171° South  Level Estimated
08:03AM 25.6578 46.5826 171° South  Level Estimated
08:04AM 25.5523 46.6002 171° South  Level Estimated
08:05AM 25.4469 46.6177 171° South  Level Estimated
08:06AM 25.3414 46.6353 171° South  Level Estimated
08:07AM 25.2360 46.6527 171° South  Level Estimated
08:08AM 25.1305 46.6702 171° South  Level Estimated
08:09AM 25.0251 46.6876 171° South  Level Estimated
08:10AM 24.9576 46.6988 171° South  Level Estimated
08:11AM 24.9576 46.6988 270° West  Level Estimated
08:12AM 24.9576 46.6988 270° West  Level Estimated
08:13AM 24.9576 46.6988 270° West  Level Estimated
08:14AM 24.9576 46.6988 270° West  Level Estimated
08:15AM 24.9576 46.6988 270° West  Level Estimated
08:16AM 24.9576 46.6988 270° West  Level Estimated
08:17AM 24.9576 46.6988 270° West  Level Estimated
08:18AM 24.9576 46.6988 270° West  Level Estimated
08:19AM 24.9576 46.6988 270° West  Level Estimated
08:20AM 24.9576 46.6988 270° West  Level Estimated